Time;durP1;ratioP1;P1;durP2;ratioP2;P2;SDS_P1;SDS_P2;PMS_P1;PMS_P2;Temp;Humidity;BMP_temperature;BMP_pressure;BME280_temperature;BME280_humidity;BME280_pressure;Samples;Min_cycle;Max_cycle;Signal;HPM_P1;HPM_P2
2022/01/28 00:00:04;;;;;;;13.03;7.00;;;;;4.10;96886.00;;;;8258548;28;20227;-75
2022/01/28 00:04:14;;;;;;;7.70;5.23;;;;;4.10;96893.00;;;;8260037;28;20238;-75
2022/01/28 00:08:16;;;;;;;9.87;5.83;;;;;4.10;96897.00;;;;8256169;28;20264;-75
2022/01/28 00:12:23;;;;;;;14.20;7.60;;;;;4.00;96909.00;;;;8263592;28;20236;-75
2022/01/28 00:16:56;;;;;;;11.50;7.00;;;;;4.00;96903.00;;;;8257821;28;20228;-75
2022/01/28 00:38:28;;;;;;;10.77;5.87;;;;;3.80;96930.00;;;;8263917;28;20220;-74
2022/01/28 00:42:31;;;;;;;9.83;4.80;;;;;3.70;96934.00;;;;8256382;28;20229;-75
2022/01/28 00:46:36;;;;;;;16.07;6.93;;;;;3.60;96934.00;;;;8260493;28;20225;-75
2022/01/28 00:50:41;;;;;;;16.13;7.20;;;;;3.50;96932.00;;;;8268752;28;20802;-75
2022/01/28 00:54:44;;;;;;;11.70;6.03;;;;;3.60;96939.00;;;;8258873;28;21316;-74
2022/01/28 00:58:48;;;;;;;11.23;6.37;;;;;3.60;96954.00;;;;8264539;28;20220;-74
2022/01/28 01:02:53;;;;;;;5.83;3.93;;;;;3.60;96951.00;;;;8251740;28;20236;-74
2022/01/28 01:06:57;;;;;;;15.17;7.43;;;;;3.60;96964.00;;;;8254470;28;20239;-74
2022/01/28 01:11:00;;;;;;;14.43;6.50;;;;;3.60;96959.00;;;;8258604;28;20225;-74
2022/01/28 01:15:04;;;;;;;12.87;6.47;;;;;3.60;96963.00;;;;8261559;28;20624;-74
2022/01/28 01:19:17;;;;;;;12.40;6.63;;;;;3.70;96967.00;;;;8266338;28;20230;-73
2022/01/28 01:23:27;;;;;;;10.67;5.97;;;;;3.70;96973.00;;;;8264184;28;20333;-73
2022/01/28 01:27:30;;;;;;;16.53;7.33;;;;;3.70;96979.00;;;;8265971;28;20557;-73
2022/01/28 01:31:34;;;;;;;13.97;7.03;;;;;3.70;96996.00;;;;8258035;28;20698;-74
2022/01/28 01:35:39;;;;;;;13.83;6.60;;;;;3.70;96986.00;;;;8280175;28;20244;-73
2022/01/28 01:39:42;;;;;;;13.77;7.27;;;;;3.70;96998.00;;;;8269179;28;20225;-74
2022/01/28 01:44:00;;;;;;;12.43;6.13;;;;;3.70;96988.00;;;;8261913;28;20235;-73
2022/01/28 01:52:25;;;;;;;9.07;5.70;;;;;3.70;96999.00;;;;8259477;28;20260;-73
2022/01/28 01:56:29;;;;;;;16.47;6.40;;;;;3.70;96991.00;;;;8258856;28;20296;-73
2022/01/28 02:00:31;;;;;;;13.23;6.27;;;;;3.70;97003.00;;;;8259995;28;20292;-72
2022/01/28 02:04:34;;;;;;;7.73;4.47;;;;;3.80;96996.00;;;;8258782;28;20311;-72
2022/01/28 02:08:39;;;;;;;14.90;6.30;;;;;3.80;97002.00;;;;8266947;28;20232;-73
2022/01/28 02:12:45;;;;;;;11.60;5.87;;;;;3.60;97009.00;;;;8258334;28;20233;-74
2022/01/28 02:16:48;;;;;;;14.53;6.40;;;;;3.40;97011.00;;;;8252638;28;20295;-73
2022/01/28 02:20:58;;;;;;;10.13;5.83;;;;;3.40;96991.00;;;;8254205;28;20252;-74
2022/01/28 02:25:01;;;;;;;13.37;5.67;;;;;3.40;97003.00;;;;8267861;28;20292;-72
2022/01/28 02:29:13;;;;;;;12.00;5.90;;;;;3.50;97007.00;;;;8250409;28;20237;-76
2022/01/28 02:33:18;;;;;;;15.50;6.33;;;;;3.50;96997.00;;;;8255922;28;20232;-72
2022/01/28 02:37:22;;;;;;;12.67;7.40;;;;;3.50;97000.00;;;;8260931;28;20230;-73
2022/01/28 02:41:31;;;;;;;14.03;5.60;;;;;3.60;97007.00;;;;8259442;28;20562;-72
2022/01/28 02:45:36;;;;;;;14.20;7.73;;;;;3.50;97016.00;;;;8266127;28;20290;-73
2022/01/28 02:49:39;;;;;;;16.70;8.37;;;;;3.60;97011.00;;;;8257501;28;20232;-72
2022/01/28 02:53:48;;;;;;;16.63;7.77;;;;;3.60;97019.00;;;;8262872;28;20240;-72
2022/01/28 02:58:03;;;;;;;20.43;8.30;;;;;3.70;97017.00;;;;8259458;28;20223;-72
2022/01/28 03:02:06;;;;;;;15.80;7.73;;;;;3.70;97026.00;;;;8295859;22;20229;-72
2022/01/28 03:06:09;;;;;;;14.83;7.03;;;;;3.70;97020.00;;;;8303718;28;20236;-73
2022/01/28 03:10:27;;;;;;;19.67;8.47;;;;;3.70;97042.00;;;;8299487;28;20226;-73
2022/01/28 03:14:37;;;;;;;12.77;7.03;;;;;3.70;97045.00;;;;8296205;28;20730;-72
2022/01/28 03:23:00;;;;;;;15.27;7.70;;;;;3.80;97057.00;;;;8306326;28;20317;-73
2022/01/28 03:27:11;;;;;;;17.00;8.00;;;;;3.80;97060.00;;;;8308703;28;20235;-74
2022/01/28 03:31:14;;;;;;;16.73;7.37;;;;;3.70;97061.00;;;;8308772;28;20227;-74
2022/01/28 03:35:18;;;;;;;16.13;7.23;;;;;3.80;97064.00;;;;8305909;28;20281;-73
2022/01/28 03:39:21;;;;;;;16.13;6.53;;;;;3.80;97050.00;;;;8312660;28;20290;-73
2022/01/28 03:43:26;;;;;;;12.97;6.30;;;;;3.80;97056.00;;;;8299415;28;20668;-74
2022/01/28 03:47:28;;;;;;;7.23;5.10;;;;;3.90;97067.00;;;;8303569;28;20719;-75
2022/01/28 03:51:32;;;;;;;10.50;5.77;;;;;3.90;97069.00;;;;8296434;28;20293;-73
2022/01/28 03:55:35;;;;;;;20.07;7.83;;;;;3.80;97077.00;;;;8301605;28;20222;-74
2022/01/28 03:59:40;;;;;;;11.30;6.73;;;;;3.80;97083.00;;;;8298776;28;20229;-74
2022/01/28 04:03:59;;;;;;;11.53;5.60;;;;;3.80;97081.00;;;;8289158;28;20225;-74
2022/01/28 04:12:24;;;;;;;13.30;5.87;;;;;3.80;97103.00;;;;8281757;28;20307;-74
2022/01/28 04:16:33;;;;;;;15.07;6.20;;;;;3.80;97096.00;;;;8290361;28;20289;-73
2022/01/28 04:20:38;;;;;;;14.20;6.00;;;;;3.80;97099.00;;;;8297614;28;20243;-73
2022/01/28 04:24:41;;;;;;;13.10;6.73;;;;;3.80;97096.00;;;;8288055;28;21634;-73
2022/01/28 04:28:45;;;;;;;16.13;6.43;;;;;3.70;97101.00;;;;8287132;28;20225;-73
2022/01/28 04:32:51;;;;;;;20.70;6.53;;;;;3.60;97115.00;;;;8286508;28;20232;-74
2022/01/28 04:37:02;;;;;;;14.57;6.10;;;;;3.60;97117.00;;;;8302803;28;20228;-73
2022/01/28 04:41:13;;;;;;;14.70;6.40;;;;;3.60;97115.00;;;;8291506;28;20293;-73
2022/01/28 04:45:23;;;;;;;15.90;6.17;;;;;3.70;97121.00;;;;8286785;28;20246;-73
2022/01/28 04:49:38;;;;;;;10.50;5.97;;;;;3.70;97127.00;;;;8289529;28;20256;-73
2022/01/28 04:53:57;;;;;;;9.67;5.07;;;;;3.70;97137.00;;;;8284665;28;20673;-73
2022/01/28 04:58:12;;;;;;;10.03;6.47;;;;;3.80;97137.00;;;;8286982;28;20233;-72
2022/01/28 05:02:35;;;;;;;10.57;5.00;;;;;3.80;97144.00;;;;8292782;28;20233;-73
2022/01/28 05:15:47;;;;;;;6.57;4.27;;;;;3.80;97168.00;;;;8288162;28;21342;-72
2022/01/28 05:28:29;;;;;;;10.50;5.10;;;;;3.70;97184.00;;;;8268242;28;20648;-72
2022/01/28 05:32:32;;;;;;;12.47;6.10;;;;;3.80;97178.00;;;;8285943;28;20233;-72
2022/01/28 05:36:35;;;;;;;16.20;6.77;;;;;3.70;97182.00;;;;8289144;28;20230;-72
2022/01/28 05:40:40;;;;;;;11.57;5.93;;;;;3.80;97187.00;;;;8290202;28;20274;-73
2022/01/28 05:44:43;;;;;;;8.60;5.10;;;;;3.80;97190.00;;;;8273081;28;20641;-73
2022/01/28 05:48:46;;;;;;;15.67;9.60;;;;;3.80;97190.00;;;;8268183;28;20273;-73
2022/01/28 05:52:49;;;;;;;80.83;39.43;;;;;3.70;97198.00;;;;8282597;28;20622;-73
2022/01/28 05:56:54;;;;;;;43.10;23.23;;;;;3.60;97202.00;;;;8283280;28;20245;-73
2022/01/28 06:00:56;;;;;;;12.97;9.40;;;;;3.60;97200.00;;;;8278107;28;20236;-74
2022/01/28 06:05:00;;;;;;;11.77;5.63;;;;;3.60;97211.00;;;;8284498;28;20760;-72
2022/01/28 06:09:03;;;;;;;10.30;7.27;;;;;3.60;97219.00;;;;8281834;28;20688;-72
2022/01/28 06:13:09;;;;;;;11.83;6.30;;;;;3.70;97216.00;;;;8289384;28;20287;-72
2022/01/28 06:17:12;;;;;;;12.10;6.23;;;;;3.70;97216.00;;;;8289794;28;21412;-73
2022/01/28 06:21:16;;;;;;;10.00;5.67;;;;;3.70;97221.00;;;;8271705;28;20221;-73
2022/01/28 06:25:19;;;;;;;12.50;7.73;;;;;3.60;97217.00;;;;8279623;28;20626;-71
2022/01/28 06:29:23;;;;;;;13.03;5.63;;;;;3.40;97228.00;;;;8280185;28;20285;-71
2022/01/28 06:33:26;;;;;;;17.83;10.53;;;;;3.30;97234.00;;;;8283317;28;20283;-71
2022/01/28 06:37:29;;;;;;;9.70;5.43;;;;;3.30;97243.00;;;;8289344;28;20564;-72
2022/01/28 06:41:32;;;;;;;10.10;4.67;;;;;3.30;97252.00;;;;8283572;28;20237;-72
2022/01/28 06:45:39;;;;;;;6.67;3.97;;;;;3.40;97249.00;;;;8282157;28;20295;-72
2022/01/28 06:49:43;;;;;;;8.80;4.60;;;;;3.40;97256.00;;;;8280264;28;20596;-73
2022/01/28 06:53:46;;;;;;;6.97;4.70;;;;;3.40;97271.00;;;;8288541;28;20288;-73
2022/01/28 06:57:49;;;;;;;10.40;4.73;;;;;3.40;97267.00;;;;8286135;28;20233;-72
2022/01/28 07:01:53;;;;;;;5.73;3.80;;;;;3.50;97274.00;;;;8284604;28;20298;-72
2022/01/28 07:05:56;;;;;;;13.57;4.70;;;;;3.60;97268.00;;;;8278450;28;20611;-74
2022/01/28 07:10:00;;;;;;;12.77;5.00;;;;;3.60;97275.00;;;;8281391;28;21266;-73
2022/01/28 07:14:03;;;;;;;10.50;4.40;;;;;3.70;97283.00;;;;8284127;28;20559;-73
2022/01/28 07:18:07;;;;;;;13.63;5.47;;;;;3.70;97293.00;;;;8285640;28;20280;-72
2022/01/28 07:22:10;;;;;;;9.07;4.97;;;;;3.70;97287.00;;;;8285766;28;20242;-72
2022/01/28 07:26:13;;;;;;;9.73;3.73;;;;;3.80;97282.00;;;;8287964;28;21214;-72
2022/01/28 07:30:16;;;;;;;9.60;5.60;;;;;3.80;97281.00;;;;8274232;28;20302;-72
2022/01/28 07:34:20;;;;;;;13.80;6.13;;;;;3.80;97274.00;;;;8280080;28;20909;-71
2022/01/28 07:38:24;;;;;;;11.57;5.60;;;;;3.70;97274.00;;;;8289282;28;20327;-73
2022/01/28 07:42:27;;;;;;;12.87;5.20;;;;;3.60;97283.00;;;;8283386;28;20901;-72
2022/01/28 07:46:30;;;;;;;10.83;4.93;;;;;3.70;97280.00;;;;8292346;28;20237;-74
2022/01/28 07:50:35;;;;;;;7.13;4.07;;;;;3.80;97294.00;;;;8282875;28;20629;-73
2022/01/28 07:54:46;;;;;;;12.97;5.53;;;;;3.90;97319.00;;;;8287066;28;20236;-74
2022/01/28 07:58:49;;;;;;;13.50;5.40;;;;;3.90;97333.00;;;;8286227;28;20286;-73
2022/01/28 08:02:52;;;;;;;10.37;5.30;;;;;4.00;97331.00;;;;8285753;28;20239;-72
2022/01/28 08:06:56;;;;;;;13.53;5.13;;;;;4.00;97340.00;;;;8282653;28;20231;-72
2022/01/28 08:10:59;;;;;;;8.20;4.53;;;;;4.00;97333.00;;;;8293417;28;20219;-72
2022/01/28 08:15:02;;;;;;;5.77;3.47;;;;;4.00;97336.00;;;;8288716;28;20677;-72
2022/01/28 08:19:08;;;;;;;9.30;4.20;;;;;3.90;97321.00;;;;8289553;28;20231;-73
2022/01/28 08:23:12;;;;;;;6.50;2.90;;;;;3.90;97321.00;;;;8296805;28;20674;-74
2022/01/28 08:27:15;;;;;;;6.43;3.53;;;;;3.90;97363.00;;;;8277348;28;20229;-74
2022/01/28 08:31:18;;;;;;;9.10;3.37;;;;;4.20;97371.00;;;;8285441;28;20248;-73
2022/01/28 08:35:29;;;;;;;8.60;3.37;;;;;4.30;97377.00;;;;8287123;28;20270;-73
2022/01/28 08:39:34;;;;;;;2.70;2.50;;;;;4.40;97385.00;;;;8284754;28;20298;-73
2022/01/28 08:43:37;;;;;;;6.33;3.30;;;;;4.40;97391.00;;;;8282029;28;20275;-72
2022/01/28 08:47:41;;;;;;;8.07;2.77;;;;;4.40;97380.00;;;;8291104;28;20233;-71
2022/01/28 08:51:45;;;;;;;5.37;2.87;;;;;4.40;97378.00;;;;8273778;28;20295;-71
2022/01/28 08:55:49;;;;;;;6.73;2.73;;;;;4.40;97381.00;;;;8285603;28;20236;-71
2022/01/28 08:59:57;;;;;;;5.63;2.63;;;;;4.50;97363.00;;;;8285765;28;20599;-72
2022/01/28 09:04:00;;;;;;;3.73;1.90;;;;;4.60;97382.00;;;;8286473;28;20243;-71
2022/01/28 09:08:07;;;;;;;4.40;2.50;;;;;4.70;97389.00;;;;8280951;28;20276;-73
2022/01/28 09:12:27;;;;;;;3.23;2.20;;;;;4.80;97378.00;;;;8282918;28;20299;-72
2022/01/28 09:16:30;;;;;;;4.40;2.10;;;;;4.90;97405.00;;;;8285313;28;20229;-73
2022/01/28 09:20:35;;;;;;;5.27;2.50;;;;;5.00;97401.00;;;;8285572;28;20233;-73
2022/01/28 09:24:38;;;;;;;2.73;2.07;;;;;5.00;97393.00;;;;8285220;28;20239;-72
2022/01/28 09:28:42;;;;;;;9.30;2.40;;;;;5.10;97405.00;;;;8277730;28;20242;-72
2022/01/28 09:32:45;;;;;;;3.83;2.10;;;;;5.00;97393.00;;;;8281723;28;20597;-73
2022/01/28 09:36:53;;;;;;;3.80;2.37;;;;;4.90;97392.00;;;;8280853;28;20853;-72
2022/01/28 09:40:57;;;;;;;1.60;1.50;;;;;4.90;97383.00;;;;8266100;28;20224;-72
2022/01/28 09:45:04;;;;;;;4.30;2.00;;;;;5.00;97397.00;;;;8269770;28;20232;-72
2022/01/28 09:49:07;;;;;;;3.93;1.90;;;;;4.90;97415.00;;;;8281558;28;20244;-73
2022/01/28 09:53:10;;;;;;;6.63;2.67;;;;;4.80;97416.00;;;;8274917;28;20568;-72
2022/01/28 09:57:19;;;;;;;3.97;2.23;;;;;4.70;97443.00;;;;8281374;28;20228;-72
2022/01/28 10:01:23;;;;;;;6.27;2.07;;;;;4.60;97440.00;;;;8279945;28;20330;-73
2022/01/28 10:05:28;;;;;;;4.47;2.00;;;;;4.60;97444.00;;;;8282216;28;20306;-73
2022/01/28 10:09:31;;;;;;;4.47;1.90;;;;;4.60;97466.00;;;;8280122;28;20375;-73
2022/01/28 10:13:40;;;;;;;3.90;2.10;;;;;4.70;97467.00;;;;8281179;28;20236;-73
2022/01/28 10:17:52;;;;;;;5.47;2.17;;;;;4.80;97461.00;;;;8275274;28;20274;-73
2022/01/28 10:21:55;;;;;;;7.33;2.80;;;;;5.10;97467.00;;;;8279869;28;20220;-74
2022/01/28 10:26:02;;;;;;;6.20;1.93;;;;;5.00;97488.00;;;;8278910;28;20230;-73
2022/01/28 10:30:06;;;;;;;3.50;1.60;;;;;5.10;97495.00;;;;8275298;28;20239;-73
2022/01/28 10:34:16;;;;;;;9.70;1.80;;;;;5.20;97489.00;;;;8269610;28;20225;-74
2022/01/28 10:38:30;;;;;;;6.90;2.07;;;;;5.10;97494.00;;;;8281328;28;20237;-72
2022/01/28 10:42:35;;;;;;;18.40;2.90;;;;;5.20;97509.00;;;;8276741;28;20232;-74
2022/01/28 10:46:38;;;;;;;3.67;1.90;;;;;5.20;97510.00;;;;8269997;28;20277;-75
2022/01/28 10:50:44;;;;;;;8.50;2.00;;;;;5.20;97517.00;;;;8279470;28;20263;-75
2022/01/28 10:54:57;;;;;;;9.03;2.50;;;;;5.20;97517.00;;;;8275995;28;20292;-74
2022/01/28 10:59:03;;;;;;;5.23;1.90;;;;;5.20;97520.00;;;;8281734;28;20291;-74
2022/01/28 11:03:07;;;;;;;7.27;1.67;;;;;5.20;97510.00;;;;8270601;28;20230;-74
2022/01/28 11:07:13;;;;;;;5.83;1.97;;;;;5.20;97501.00;;;;8281943;28;20273;-74
2022/01/28 11:11:16;;;;;;;6.67;1.77;;;;;5.30;97500.00;;;;8265746;28;20233;-74
2022/01/28 11:15:19;;;;;;;6.90;2.20;;;;;5.40;97501.00;;;;8276504;28;20338;-74
2022/01/28 11:19:24;;;;;;;4.50;1.87;;;;;5.40;97490.00;;;;8279850;28;20236;-74
2022/01/28 11:23:34;;;;;;;6.60;2.30;;;;;5.40;97491.00;;;;8276180;28;20227;-77
2022/01/28 11:27:40;;;;;;;6.80;2.50;;;;;5.50;97484.00;;;;8279675;28;20286;-76
2022/01/28 11:31:48;;;;;;;6.00;2.40;;;;;5.60;97490.00;;;;8286008;28;20245;-75
2022/01/28 11:36:03;;;;;;;10.07;2.40;;;;;5.60;97493.00;;;;8299840;28;20231;-75
2022/01/28 11:40:09;;;;;;;6.80;2.57;;;;;5.80;97501.00;;;;8297583;28;20747;-76
2022/01/28 11:44:42;;;;;;;7.97;2.33;;;;;5.80;97513.00;;;;8289706;28;20229;-75
2022/01/28 11:49:15;;;;;;;14.30;3.00;;;;;5.70;97515.00;;;;8287008;28;20221;-76
2022/01/28 11:53:24;;;;;;;6.20;2.30;;;;;5.70;97513.00;;;;8282049;28;20233;-77
2022/01/28 11:57:29;;;;;;;5.73;1.70;;;;;5.70;97522.00;;;;8287141;28;20236;-74
2022/01/28 12:02:10;;;;;;;11.13;2.20;;;;;5.60;97523.00;;;;8284840;28;20223;-76
2022/01/28 12:06:14;;;;;;;7.73;1.80;;;;;5.70;97517.00;;;;8286530;28;20596;-74
2022/01/28 12:10:18;;;;;;;6.60;1.90;;;;;5.50;97505.00;;;;8289458;28;20280;-74
2022/01/28 12:15:00;;;;;;;6.23;2.43;;;;;5.40;97520.00;;;;8289489;28;20236;-72
2022/01/28 12:19:16;;;;;;;4.93;1.80;;;;;5.40;97516.00;;;;8286425;28;20296;-72
2022/01/28 12:23:36;;;;;;;5.37;1.80;;;;;5.50;97521.00;;;;8292610;28;20224;-74
2022/01/28 12:27:39;;;;;;;12.97;2.37;;;;;5.50;97524.00;;;;8286338;28;20248;-73
2022/01/28 12:31:56;;;;;;;5.73;2.17;;;;;5.60;97527.00;;;;8288151;28;20695;-74
2022/01/28 12:36:09;;;;;;;4.13;1.97;;;;;5.60;97527.00;;;;8288659;28;20233;-76
2022/01/28 12:40:24;;;;;;;5.07;1.70;;;;;5.70;97527.00;;;;8273323;28;20227;-73
2022/01/28 12:44:27;;;;;;;7.40;1.93;;;;;5.70;97532.00;;;;8284232;28;20233;-74
2022/01/28 12:48:35;;;;;;;8.37;2.23;;;;;5.80;97528.00;;;;8281698;28;20222;-74
2022/01/28 12:52:40;;;;;;;8.40;1.90;;;;;5.70;97524.00;;;;8282883;28;20236;-76
2022/01/28 12:56:43;;;;;;;8.80;2.20;;;;;5.80;97519.00;;;;8296750;28;20225;-74
2022/01/28 13:00:52;;;;;;;12.83;2.63;;;;;5.90;97521.00;;;;8285958;28;20812;-74
2022/01/28 13:05:12;;;;;;;11.40;2.77;;;;;5.90;97523.00;;;;8284000;28;20242;-74
2022/01/28 13:09:18;;;;;;;7.27;1.80;;;;;5.90;97530.00;;;;8283055;28;20284;-75
2022/01/28 13:13:21;;;;;;;5.27;2.10;;;;;5.80;97521.00;;;;8280876;28;20234;-73
2022/01/28 13:17:25;;;;;;;8.53;2.30;;;;;5.80;97535.00;;;;8279337;28;20226;-74
2022/01/28 13:21:28;;;;;;;8.13;2.30;;;;;5.80;97530.00;;;;8274619;28;20244;-74
2022/01/28 13:25:33;;;;;;;7.20;2.30;;;;;5.80;97537.00;;;;8289117;28;20288;-75
2022/01/28 13:29:38;;;;;;;8.47;2.17;;;;;5.70;97520.00;;;;8288839;28;20669;-77
2022/01/28 13:33:41;;;;;;;3.73;2.03;;;;;5.80;97516.00;;;;8278756;28;20240;-75
2022/01/28 13:37:47;;;;;;;11.20;2.70;;;;;5.80;97516.00;;;;8288849;28;20793;-76
2022/01/28 13:42:08;;;;;;;6.87;2.43;;;;;5.80;97514.00;;;;8280171;28;20634;-76
2022/01/28 13:46:14;;;;;;;8.30;2.33;;;;;5.80;97504.00;;;;8285933;28;20711;-74
2022/01/28 13:50:30;;;;;;;9.07;2.80;;;;;5.80;97513.00;;;;8288656;28;20279;-74
2022/01/28 13:54:33;;;;;;;6.73;2.30;;;;;5.90;97521.00;;;;8283851;28;20583;-75
2022/01/28 13:58:52;;;;;;;8.77;2.33;;;;;6.00;97527.00;;;;8289681;28;20243;-76
2022/01/28 14:02:55;;;;;;;8.50;2.00;;;;;6.10;97522.00;;;;8286138;28;20634;-75
2022/01/28 14:07:16;;;;;;;10.97;2.27;;;;;6.10;97533.00;;;;8286763;28;20236;-75
2022/01/28 14:11:30;;;;;;;6.57;2.03;;;;;6.10;97535.00;;;;8282762;28;20622;-75
2022/01/28 14:15:42;;;;;;;8.27;2.40;;;;;6.10;97544.00;;;;8286814;28;20233;-74
2022/01/28 14:19:46;;;;;;;6.97;2.37;;;;;6.10;97541.00;;;;8277051;28;20668;-75
2022/01/28 14:23:49;;;;;;;6.67;1.70;;;;;6.10;97545.00;;;;8276822;28;20231;-76
2022/01/28 14:28:13;;;;;;;7.27;1.83;;;;;6.10;97543.00;;;;8270082;28;20230;-76
2022/01/28 14:32:19;;;;;;;10.20;2.00;;;;;6.10;97561.00;;;;8275923;28;20277;-76
2022/01/28 14:36:22;;;;;;;10.17;2.50;;;;;6.00;97568.00;;;;8286971;28;20217;-76
2022/01/28 14:40:42;;;;;;;6.33;2.27;;;;;5.90;97562.00;;;;8287460;28;20256;-76
2022/01/28 14:44:47;;;;;;;7.50;1.70;;;;;5.80;97573.00;;;;8297309;28;20237;-74
2022/01/28 14:48:52;;;;;;;15.07;2.73;;;;;5.80;97572.00;;;;8278599;28;20291;-77
2022/01/28 14:52:55;;;;;;;15.40;2.13;;;;;5.70;97568.00;;;;8293198;28;20700;-77
2022/01/28 14:57:01;;;;;;;14.73;7.40;;;;;5.70;97577.00;;;;8284369;28;20979;-77
2022/01/28 15:01:08;;;;;;;12.50;5.57;;;;;5.70;97579.00;;;;8272459;28;20452;-73
2022/01/28 15:05:14;;;;;;;10.30;3.53;;;;;5.60;97572.00;;;;8276885;28;20360;-77
2022/01/28 15:09:18;;;;;;;45.43;19.47;;;;;5.60;97574.00;;;;8269085;28;20631;-77
2022/01/28 15:13:21;;;;;;;27.57;11.50;;;;;5.60;97587.00;;;;8279307;28;20228;-76
2022/01/28 15:17:26;;;;;;;13.93;3.43;;;;;5.60;97590.00;;;;8281509;28;20233;-74
2022/01/28 15:21:30;;;;;;;6.67;2.40;;;;;5.50;97593.00;;;;8283811;28;20234;-76
2022/01/28 15:25:33;;;;;;;9.73;2.40;;;;;5.50;97597.00;;;;8277057;28;20291;-77
2022/01/28 15:29:58;;;;;;;12.13;2.40;;;;;5.40;97604.00;;;;8278676;28;20234;-77
2022/01/28 15:34:30;;;;;;;7.03;2.00;;;;;5.40;97601.00;;;;8285711;28;20726;-77
2022/01/28 15:38:35;;;;;;;50.83;18.50;;;;;5.30;97607.00;;;;8291278;28;20229;-76
2022/01/28 15:42:38;;;;;;;15.97;3.23;;;;;5.30;97608.00;;;;8286762;28;20251;-76
2022/01/28 15:46:41;;;;;;;68.27;31.33;;;;;5.20;97616.00;;;;8278475;28;20714;-74
2022/01/28 15:50:48;;;;;;;16.47;7.10;;;;;5.20;97624.00;;;;8273948;28;20637;-76
2022/01/28 15:54:53;;;;;;;6.67;2.60;;;;;5.20;97626.00;;;;8277651;28;20690;-76
2022/01/28 15:58:56;;;;;;;6.80;2.20;;;;;5.10;97641.00;;;;8283000;28;20827;-75
2022/01/28 16:02:59;;;;;;;7.20;2.50;;;;;5.10;97638.00;;;;8289635;28;20232;-75
2022/01/28 16:07:02;;;;;;;12.43;2.97;;;;;5.10;97629.00;;;;8281382;28;20317;-76
2022/01/28 16:11:18;;;;;;;10.97;3.03;;;;;5.00;97635.00;;;;8288188;28;20250;-76
2022/01/28 16:15:23;;;;;;;7.87;3.43;;;;;4.80;97628.00;;;;8282633;28;20228;-76
2022/01/28 16:19:38;;;;;;;23.27;9.03;;;;;4.70;97641.00;;;;8279320;28;20312;-75
2022/01/28 16:23:41;;;;;;;9.77;4.07;;;;;4.70;97649.00;;;;8283052;28;20237;-75
2022/01/28 16:27:45;;;;;;;15.63;3.97;;;;;4.70;97647.00;;;;8297552;28;20775;-75
2022/01/28 16:31:49;;;;;;;11.40;3.00;;;;;4.70;97653.00;;;;8284590;28;20398;-75
2022/01/28 16:35:53;;;;;;;10.53;2.83;;;;;4.70;97651.00;;;;8290712;28;20255;-75
2022/01/28 16:39:59;;;;;;;8.60;3.50;;;;;4.70;97659.00;;;;8284437;28;20694;-75
2022/01/28 16:44:08;;;;;;;14.07;4.70;;;;;4.60;97657.00;;;;8293363;28;20732;-76
2022/01/28 16:48:12;;;;;;;11.83;5.23;;;;;4.50;97674.00;;;;8272925;28;20267;-74
2022/01/28 16:52:15;;;;;;;11.17;3.10;;;;;4.30;97686.00;;;;8272316;28;20675;-75
2022/01/28 16:56:18;;;;;;;10.57;2.53;;;;;4.30;97678.00;;;;8282509;28;20283;-72
2022/01/28 17:00:23;;;;;;;9.03;2.80;;;;;4.20;97673.00;;;;8273628;28;20250;-72
2022/01/28 17:04:26;;;;;;;6.23;2.50;;;;;4.10;97674.00;;;;8285924;28;20237;-72
2022/01/28 17:08:29;;;;;;;8.53;3.03;;;;;4.10;97671.00;;;;8278179;28;20774;-73
2022/01/28 17:12:40;;;;;;;9.27;2.60;;;;;4.10;97660.00;;;;8284998;28;20258;-73
2022/01/28 17:16:44;;;;;;;26.17;14.67;;;;;4.10;97678.00;;;;8295659;28;20227;-72
2022/01/28 17:20:53;;;;;;;8.53;2.87;;;;;4.10;97674.00;;;;8278238;28;20273;-73
2022/01/28 17:24:56;;;;;;;7.73;2.97;;;;;4.10;97695.00;;;;8292627;28;20965;-73
2022/01/28 17:28:59;;;;;;;19.43;3.30;;;;;4.20;97694.00;;;;8295579;28;20227;-72
2022/01/28 17:33:03;;;;;;;14.57;3.30;;;;;4.20;97690.00;;;;8290811;28;20230;-72
2022/01/28 17:37:08;;;;;;;7.73;2.97;;;;;4.20;97695.00;;;;8285874;28;20274;-73
2022/01/28 17:41:12;;;;;;;15.17;2.77;;;;;4.20;97698.00;;;;8283990;28;20326;-73
2022/01/28 17:45:15;;;;;;;10.43;3.13;;;;;4.20;97704.00;;;;8291064;28;20233;-73
2022/01/28 17:49:19;;;;;;;11.13;3.03;;;;;4.20;97715.00;;;;8292120;28;20299;-74
2022/01/28 17:53:23;;;;;;;13.83;3.50;;;;;4.20;97720.00;;;;8290847;28;20713;-72
2022/01/28 17:57:26;;;;;;;9.27;2.80;;;;;4.20;97709.00;;;;8292630;28;20267;-73
2022/01/28 18:01:29;;;;;;;14.27;3.30;;;;;4.20;97722.00;;;;8291562;28;20244;-73
2022/01/28 18:05:34;;;;;;;14.33;3.50;;;;;4.20;97725.00;;;;8292688;28;20248;-74
2022/01/28 18:09:38;;;;;;;7.23;4.97;;;;;4.30;97726.00;;;;8284574;28;20240;-73
2022/01/28 18:13:41;;;;;;;12.00;4.00;;;;;4.20;97733.00;;;;8297887;28;20229;-74
2022/01/28 18:17:48;;;;;;;11.67;4.00;;;;;4.30;97738.00;;;;8291877;28;20639;-74
2022/01/28 18:21:53;;;;;;;15.20;4.07;;;;;4.30;97747.00;;;;8297103;28;20228;-73
2022/01/28 18:25:57;;;;;;;14.40;3.77;;;;;4.40;97746.00;;;;8296817;28;20676;-73
2022/01/28 18:30:00;;;;;;;12.47;3.13;;;;;4.40;97740.00;;;;8289050;28;20231;-73
2022/01/28 18:34:03;;;;;;;12.60;3.53;;;;;4.50;97756.00;;;;8287624;28;20315;-73
2022/01/28 18:38:07;;;;;;;13.40;3.97;;;;;4.50;97760.00;;;;8285318;28;20273;-73
2022/01/28 18:42:19;;;;;;;8.87;3.60;;;;;4.50;97773.00;;;;8281769;28;20283;-73
2022/01/28 18:46:30;;;;;;;14.17;3.80;;;;;4.50;97768.00;;;;8283469;28;20246;-73
2022/01/28 18:50:33;;;;;;;13.30;4.10;;;;;4.50;97768.00;;;;8291148;28;20882;-73
2022/01/28 18:54:39;;;;;;;15.73;4.37;;;;;4.50;97770.00;;;;8274049;28;20666;-72
2022/01/28 18:58:42;;;;;;;10.70;3.97;;;;;4.50;97774.00;;;;8287911;28;20263;-73
2022/01/28 19:02:46;;;;;;;9.67;3.40;;;;;4.50;97768.00;;;;8277527;28;20279;-74
2022/01/28 19:06:49;;;;;;;15.13;4.03;;;;;4.60;97773.00;;;;8281848;28;20261;-71
2022/01/28 19:10:55;;;;;;;13.00;4.03;;;;;4.60;97787.00;;;;8280067;28;20287;-72
2022/01/28 19:14:58;;;;;;;19.77;4.00;;;;;4.60;97786.00;;;;8286832;28;20237;-77
2022/01/28 19:19:02;;;;;;;9.27;3.93;;;;;4.60;97793.00;;;;8284044;28;20231;-72
2022/01/28 19:23:04;;;;;;;12.77;3.40;;;;;4.60;97803.00;;;;8294832;28;20587;-73
2022/01/28 19:27:10;;;;;;;9.27;3.70;;;;;4.60;97811.00;;;;8291581;28;20282;-73
2022/01/28 19:31:14;;;;;;;10.50;3.43;;;;;4.60;97810.00;;;;8288002;28;20637;-73
2022/01/28 19:35:17;;;;;;;13.47;3.70;;;;;4.50;97820.00;;;;8288832;28;20227;-73
2022/01/28 19:39:20;;;;;;;9.40;4.07;;;;;4.50;97817.00;;;;8284830;28;20224;-73
2022/01/28 19:43:25;;;;;;;6.00;3.10;;;;;4.50;97818.00;;;;8293802;28;20219;-73
2022/01/28 19:47:28;;;;;;;8.47;3.43;;;;;4.50;97821.00;;;;8280639;28;20232;-74
2022/01/28 19:51:33;;;;;;;9.87;3.83;;;;;4.50;97820.00;;;;8300391;28;20258;-73
2022/01/28 19:55:36;;;;;;;15.90;3.60;;;;;4.50;97815.00;;;;8295622;28;20319;-72
2022/01/28 19:59:41;;;;;;;11.47;3.90;;;;;4.50;97821.00;;;;8301123;28;20240;-73
2022/01/28 20:03:48;;;;;;;13.90;3.83;;;;;4.50;97818.00;;;;8302125;28;20284;-75
2022/01/28 20:07:51;;;;;;;11.50;4.23;;;;;4.40;97815.00;;;;8292337;28;20253;-73
2022/01/28 20:11:54;;;;;;;13.47;4.53;;;;;4.40;97832.00;;;;8298474;28;20583;-74
2022/01/28 20:15:58;;;;;;;12.93;4.03;;;;;4.40;97827.00;;;;8299812;28;20329;-74
2022/01/28 20:20:02;;;;;;;23.80;7.87;;;;;4.40;97826.00;;;;8307820;28;20591;-73
2022/01/28 20:24:05;;;;;;;23.43;10.50;;;;;4.40;97823.00;;;;8293626;28;20289;-73
2022/01/28 20:28:08;;;;;;;16.63;5.90;;;;;4.40;97826.00;;;;8300487;28;20275;-72
2022/01/28 20:32:13;;;;;;;8.27;4.73;;;;;4.40;97821.00;;;;8297617;28;21112;-73
2022/01/28 20:36:16;;;;;;;10.77;4.30;;;;;4.40;97828.00;;;;8299904;28;20252;-73
2022/01/28 20:40:19;;;;;;;14.33;3.90;;;;;4.40;97818.00;;;;8289879;28;20642;-74
2022/01/28 20:44:22;;;;;;;7.20;3.67;;;;;4.40;97818.00;;;;8299914;28;20270;-74
2022/01/28 20:48:27;;;;;;;13.53;4.10;;;;;4.40;97813.00;;;;8292228;28;20307;-74
2022/01/28 20:52:30;;;;;;;14.77;4.00;;;;;4.40;97804.00;;;;8289313;28;20228;-72
2022/01/28 20:56:33;;;;;;;9.10;4.23;;;;;4.30;97813.00;;;;8294361;28;20268;-74
2022/01/28 21:00:36;;;;;;;12.50;3.83;;;;;4.30;97810.00;;;;8286785;28;21138;-73
2022/01/28 21:04:40;;;;;;;10.53;3.90;;;;;4.20;97809.00;;;;8287215;28;20234;-74
2022/01/28 21:08:43;;;;;;;12.93;4.00;;;;;4.10;97814.00;;;;8289269;28;20282;-74
2022/01/28 21:12:46;;;;;;;14.77;3.73;;;;;4.10;97823.00;;;;8293345;28;20231;-74
2022/01/28 21:16:50;;;;;;;12.33;3.33;;;;;4.10;97817.00;;;;8293564;28;20259;-73
2022/01/28 21:20:54;;;;;;;9.20;3.80;;;;;4.10;97815.00;;;;8281164;28;21049;-74
2022/01/28 21:24:57;;;;;;;7.73;3.50;;;;;4.00;97807.00;;;;8303450;28;20665;-73